sensor_id;sensor_type;location;lat;lon;timestamp;P1;durP1;ratioP1;P2;durP2;ratioP2
68987;SDS011;56038;46.080;11.116;2023-02-18T00:04:27;62.78;;;34.58;;
68987;SDS011;56038;46.080;11.116;2023-02-18T00:09:30;53.22;;;29.23;;
68987;SDS011;56038;46.080;11.116;2023-02-18T00:14:32;58.15;;;32.03;;
68987;SDS011;56038;46.080;11.116;2023-02-18T00:19:33;48.15;;;26.35;;
68987;SDS011;56038;46.080;11.116;2023-02-18T00:24:36;52.05;;;28.65;;
68987;SDS011;56038;46.080;11.116;2023-02-18T00:29:38;41.08;;;23.40;;
68987;SDS011;56038;46.080;11.116;2023-02-18T00:34:40;44.05;;;25.20;;
68987;SDS011;56038;46.080;11.116;2023-02-18T00:39:43;41.90;;;24.25;;
68987;SDS011;56038;46.080;11.116;2023-02-18T00:44:45;45.65;;;27.10;;
68987;SDS011;56038;46.080;11.116;2023-02-18T00:49:47;55.80;;;28.55;;
68987;SDS011;56038;46.080;11.116;2023-02-18T00:54:50;46.53;;;24.58;;
68987;SDS011;56038;46.080;11.116;2023-02-18T00:59:52;48.22;;;26.50;;
68987;SDS011;56038;46.080;11.116;2023-02-18T01:04:53;52.53;;;28.55;;
68987;SDS011;56038;46.080;11.116;2023-02-18T01:09:57;41.08;;;23.13;;
68987;SDS011;56038;46.080;11.116;2023-02-18T01:14:58;41.63;;;24.45;;
68987;SDS011;56038;46.080;11.116;2023-02-18T01:20:00;41.67;;;24.10;;
68987;SDS011;56038;46.080;11.116;2023-02-18T01:25:04;41.88;;;22.77;;
68987;SDS011;56038;46.080;11.116;2023-02-18T01:30:07;39.95;;;22.30;;
68987;SDS011;56038;46.080;11.116;2023-02-18T01:35:11;43.63;;;23.52;;
68987;SDS011;56038;46.080;11.116;2023-02-18T01:40:16;45.05;;;24.83;;
68987;SDS011;56038;46.080;11.116;2023-02-18T01:50:57;34.15;;;19.38;;
68987;SDS011;56038;46.080;11.116;2023-02-18T01:56:05;46.28;;;24.92;;
68987;SDS011;56038;46.080;11.116;2023-02-18T02:01:11;50.25;;;27.10;;
68987;SDS011;56038;46.080;11.116;2023-02-18T02:06:15;45.13;;;24.75;;
68987;SDS011;56038;46.080;11.116;2023-02-18T02:11:22;45.03;;;24.90;;
68987;SDS011;56038;46.080;11.116;2023-02-18T02:16:35;51.10;;;26.73;;
68987;SDS011;56038;46.080;11.116;2023-02-18T02:21:57;41.97;;;23.50;;
68987;SDS011;56038;46.080;11.116;2023-02-18T02:38:02;45.58;;;23.95;;
68987;SDS011;56038;46.080;11.116;2023-02-18T02:43:08;42.67;;;23.80;;
68987;SDS011;56038;46.080;11.116;2023-02-18T02:48:19;40.72;;;23.23;;
68987;SDS011;56038;46.080;11.116;2023-02-18T02:53:30;44.45;;;23.30;;
68987;SDS011;56038;46.080;11.116;2023-02-18T02:58:35;46.13;;;23.17;;
68987;SDS011;56038;46.080;11.116;2023-02-18T03:09:12;44.33;;;24.33;;
68987;SDS011;56038;46.080;11.116;2023-02-18T03:14:24;37.17;;;20.35;;
68987;SDS011;56038;46.080;11.116;2023-02-18T03:19:31;42.88;;;24.45;;
68987;SDS011;56038;46.080;11.116;2023-02-18T03:24:37;41.67;;;22.40;;
68987;SDS011;56038;46.080;11.116;2023-02-18T03:29:42;39.33;;;23.70;;
68987;SDS011;56038;46.080;11.116;2023-02-18T03:34:48;42.90;;;22.98;;
68987;SDS011;56038;46.080;11.116;2023-02-18T03:39:55;45.10;;;24.75;;
68987;SDS011;56038;46.080;11.116;2023-02-18T03:45:01;43.63;;;23.25;;
68987;SDS011;56038;46.080;11.116;2023-02-18T03:50:03;42.50;;;23.85;;
68987;SDS011;56038;46.080;11.116;2023-02-18T03:55:07;49.60;;;25.67;;
68987;SDS011;56038;46.080;11.116;2023-02-18T04:00:10;44.00;;;23.42;;
68987;SDS011;56038;46.080;11.116;2023-02-18T04:05:12;41.72;;;22.55;;
68987;SDS011;56038;46.080;11.116;2023-02-18T04:15:18;48.60;;;24.75;;
68987;SDS011;56038;46.080;11.116;2023-02-18T04:20:20;45.42;;;24.40;;
68987;SDS011;56038;46.080;11.116;2023-02-18T04:25:24;39.10;;;21.67;;
68987;SDS011;56038;46.080;11.116;2023-02-18T04:30:25;36.53;;;19.35;;
68987;SDS011;56038;46.080;11.116;2023-02-18T04:35:27;40.22;;;21.92;;
68987;SDS011;56038;46.080;11.116;2023-02-18T04:40:30;47.22;;;23.05;;
68987;SDS011;56038;46.080;11.116;2023-02-18T04:45:32;44.70;;;23.67;;
68987;SDS011;56038;46.080;11.116;2023-02-18T04:50:34;44.42;;;22.10;;
68987;SDS011;56038;46.080;11.116;2023-02-18T04:55:37;40.72;;;21.17;;
68987;SDS011;56038;46.080;11.116;2023-02-18T05:00:39;35.80;;;20.85;;
68987;SDS011;56038;46.080;11.116;2023-02-18T05:05:40;47.13;;;24.02;;
68987;SDS011;56038;46.080;11.116;2023-02-18T05:10:46;47.05;;;25.02;;
68987;SDS011;56038;46.080;11.116;2023-02-18T05:15:48;45.30;;;24.38;;
68987;SDS011;56038;46.080;11.116;2023-02-18T05:20:49;39.08;;;22.08;;
68987;SDS011;56038;46.080;11.116;2023-02-18T05:25:53;42.58;;;21.70;;
68987;SDS011;56038;46.080;11.116;2023-02-18T05:30:54;42.30;;;23.25;;
68987;SDS011;56038;46.080;11.116;2023-02-18T05:35:56;40.80;;;22.27;;
68987;SDS011;56038;46.080;11.116;2023-02-18T05:40:59;39.17;;;21.58;;
68987;SDS011;56038;46.080;11.116;2023-02-18T05:46:01;45.72;;;23.15;;
68987;SDS011;56038;46.080;11.116;2023-02-18T05:51:03;45.90;;;24.50;;
68987;SDS011;56038;46.080;11.116;2023-02-18T05:56:07;47.90;;;25.75;;
68987;SDS011;56038;46.080;11.116;2023-02-18T06:01:09;41.08;;;22.00;;
68987;SDS011;56038;46.080;11.116;2023-02-18T06:06:10;42.55;;;24.17;;
68987;SDS011;56038;46.080;11.116;2023-02-18T06:11:20;43.60;;;21.23;;
68987;SDS011;56038;46.080;11.116;2023-02-18T06:16:22;42.33;;;22.17;;
68987;SDS011;56038;46.080;11.116;2023-02-18T06:21:24;46.58;;;21.98;;
68987;SDS011;56038;46.080;11.116;2023-02-18T06:26:27;38.42;;;22.00;;
68987;SDS011;56038;46.080;11.116;2023-02-18T06:31:31;46.42;;;24.55;;
68987;SDS011;56038;46.080;11.116;2023-02-18T06:36:33;37.72;;;20.77;;
68987;SDS011;56038;46.080;11.116;2023-02-18T06:41:36;38.45;;;20.55;;
68987;SDS011;56038;46.080;11.116;2023-02-18T06:46:39;44.67;;;23.85;;
68987;SDS011;56038;46.080;11.116;2023-02-18T06:51:43;41.03;;;23.23;;
68987;SDS011;56038;46.080;11.116;2023-02-18T06:56:46;56.65;;;28.52;;
68987;SDS011;56038;46.080;11.116;2023-02-18T07:01:48;40.25;;;20.67;;
68987;SDS011;56038;46.080;11.116;2023-02-18T07:06:50;41.15;;;22.05;;
68987;SDS011;56038;46.080;11.116;2023-02-18T07:11:53;42.90;;;23.23;;
68987;SDS011;56038;46.080;11.116;2023-02-18T07:16:55;38.70;;;22.02;;
68987;SDS011;56038;46.080;11.116;2023-02-18T07:21:57;40.85;;;23.02;;
68987;SDS011;56038;46.080;11.116;2023-02-18T07:27:00;36.90;;;20.38;;
68987;SDS011;56038;46.080;11.116;2023-02-18T07:32:02;49.63;;;25.85;;
68987;SDS011;56038;46.080;11.116;2023-02-18T07:37:04;43.08;;;23.58;;
68987;SDS011;56038;46.080;11.116;2023-02-18T07:42:10;41.75;;;22.88;;
68987;SDS011;56038;46.080;11.116;2023-02-18T07:47:13;38.95;;;22.20;;
68987;SDS011;56038;46.080;11.116;2023-02-18T07:52:18;48.70;;;25.02;;
68987;SDS011;56038;46.080;11.116;2023-02-18T07:57:21;49.17;;;23.73;;
68987;SDS011;56038;46.080;11.116;2023-02-18T08:02:23;44.30;;;23.50;;
68987;SDS011;56038;46.080;11.116;2023-02-18T08:07:25;42.22;;;22.50;;
68987;SDS011;56038;46.080;11.116;2023-02-18T08:12:28;41.95;;;23.25;;
68987;SDS011;56038;46.080;11.116;2023-02-18T08:17:30;32.88;;;18.10;;
68987;SDS011;56038;46.080;11.116;2023-02-18T08:22:32;34.10;;;20.73;;
68987;SDS011;56038;46.080;11.116;2023-02-18T08:27:35;36.58;;;20.02;;
68987;SDS011;56038;46.080;11.116;2023-02-18T08:32:37;34.00;;;18.75;;
68987;SDS011;56038;46.080;11.116;2023-02-18T08:37:39;35.30;;;19.75;;
68987;SDS011;56038;46.080;11.116;2023-02-18T08:42:42;35.03;;;20.95;;
68987;SDS011;56038;46.080;11.116;2023-02-18T08:47:43;35.92;;;18.48;;
68987;SDS011;56038;46.080;11.116;2023-02-18T08:52:45;35.58;;;19.88;;
68987;SDS011;56038;46.080;11.116;2023-02-18T08:57:49;35.58;;;20.58;;
68987;SDS011;56038;46.080;11.116;2023-02-18T09:02:54;31.67;;;18.88;;
68987;SDS011;56038;46.080;11.116;2023-02-18T09:07:56;35.72;;;20.65;;
68987;SDS011;56038;46.080;11.116;2023-02-18T09:12:59;46.33;;;22.77;;
68987;SDS011;56038;46.080;11.116;2023-02-18T09:18:01;42.03;;;24.50;;
68987;SDS011;56038;46.080;11.116;2023-02-18T09:23:03;47.05;;;25.63;;
68987;SDS011;56038;46.080;11.116;2023-02-18T09:28:06;40.60;;;22.70;;
68987;SDS011;56038;46.080;11.116;2023-02-18T09:38:13;36.60;;;22.58;;
68987;SDS011;56038;46.080;11.116;2023-02-18T09:43:29;38.17;;;22.33;;
68987;SDS011;56038;46.080;11.116;2023-02-18T09:48:35;40.55;;;21.73;;
68987;SDS011;56038;46.080;11.116;2023-02-18T09:53:37;39.53;;;25.13;;
68987;SDS011;56038;46.080;11.116;2023-02-18T09:58:41;44.53;;;23.92;;
68987;SDS011;56038;46.080;11.116;2023-02-18T10:03:44;47.37;;;27.47;;
68987;SDS011;56038;46.080;11.116;2023-02-18T10:08:48;44.10;;;26.45;;
68987;SDS011;56038;46.080;11.116;2023-02-18T10:13:54;43.85;;;26.88;;
68987;SDS011;56038;46.080;11.116;2023-02-18T10:18:57;49.35;;;29.42;;
68987;SDS011;56038;46.080;11.116;2023-02-18T10:24:03;46.17;;;29.75;;
68987;SDS011;56038;46.080;11.116;2023-02-18T10:29:12;45.10;;;25.67;;
68987;SDS011;56038;46.080;11.116;2023-02-18T10:34:17;49.70;;;27.65;;
68987;SDS011;56038;46.080;11.116;2023-02-18T10:39:37;40.83;;;24.58;;
68987;SDS011;56038;46.080;11.116;2023-02-18T10:44:54;39.33;;;24.17;;
68987;SDS011;56038;46.080;11.116;2023-02-18T10:50:07;37.22;;;22.30;;
68987;SDS011;56038;46.080;11.116;2023-02-18T10:55:11;38.72;;;22.15;;
68987;SDS011;56038;46.080;11.116;2023-02-18T11:00:20;45.95;;;27.23;;
68987;SDS011;56038;46.080;11.116;2023-02-18T11:05:28;43.80;;;26.08;;
68987;SDS011;56038;46.080;11.116;2023-02-18T11:10:37;49.13;;;28.58;;
68987;SDS011;56038;46.080;11.116;2023-02-18T11:15:54;47.22;;;27.60;;
68987;SDS011;56038;46.080;11.116;2023-02-18T11:21:00;46.13;;;27.35;;
68987;SDS011;56038;46.080;11.116;2023-02-18T11:26:04;49.00;;;27.92;;
68987;SDS011;56038;46.080;11.116;2023-02-18T11:31:09;50.58;;;28.38;;
68987;SDS011;56038;46.080;11.116;2023-02-18T11:36:17;47.22;;;26.73;;
68987;SDS011;56038;46.080;11.116;2023-02-18T11:41:31;53.08;;;30.30;;
68987;SDS011;56038;46.080;11.116;2023-02-18T11:46:37;43.63;;;25.25;;
68987;SDS011;56038;46.080;11.116;2023-02-18T11:51:38;55.72;;;31.23;;
68987;SDS011;56038;46.080;11.116;2023-02-18T11:56:40;53.78;;;32.50;;
68987;SDS011;56038;46.080;11.116;2023-02-18T12:01:59;57.75;;;33.15;;
68987;SDS011;56038;46.080;11.116;2023-02-18T12:07:11;50.85;;;29.95;;
68987;SDS011;56038;46.080;11.116;2023-02-18T12:12:18;51.50;;;31.17;;
68987;SDS011;56038;46.080;11.116;2023-02-18T12:17:34;59.00;;;34.35;;
68987;SDS011;56038;46.080;11.116;2023-02-18T12:22:49;54.25;;;31.73;;
68987;SDS011;56038;46.080;11.116;2023-02-18T12:28:04;55.28;;;34.10;;
68987;SDS011;56038;46.080;11.116;2023-02-18T12:33:18;54.28;;;31.58;;
68987;SDS011;56038;46.080;11.116;2023-02-18T12:38:36;56.40;;;32.15;;
68987;SDS011;56038;46.080;11.116;2023-02-18T12:43:51;51.22;;;31.48;;
68987;SDS011;56038;46.080;11.116;2023-02-18T12:49:12;51.75;;;31.08;;
68987;SDS011;56038;46.080;11.116;2023-02-18T12:54:43;48.45;;;29.48;;
68987;SDS011;56038;46.080;11.116;2023-02-18T13:05:37;58.17;;;35.58;;
68987;SDS011;56038;46.080;11.116;2023-02-18T13:10:51;53.35;;;32.97;;
68987;SDS011;56038;46.080;11.116;2023-02-18T13:21:07;60.60;;;34.67;;
68987;SDS011;56038;46.080;11.116;2023-02-18T13:26:12;59.95;;;33.88;;
68987;SDS011;56038;46.080;11.116;2023-02-18T13:31:18;57.92;;;32.88;;
68987;SDS011;56038;46.080;11.116;2023-02-18T13:36:35;53.60;;;32.20;;
68987;SDS011;56038;46.080;11.116;2023-02-18T13:41:48;51.25;;;28.63;;
68987;SDS011;56038;46.080;11.116;2023-02-18T13:46:51;54.80;;;33.30;;
68987;SDS011;56038;46.080;11.116;2023-02-18T13:51:55;54.40;;;34.60;;
68987;SDS011;56038;46.080;11.116;2023-02-18T13:57:00;72.85;;;41.28;;
68987;SDS011;56038;46.080;11.116;2023-02-18T14:02:07;77.75;;;42.83;;
68987;SDS011;56038;46.080;11.116;2023-02-18T14:07:43;79.25;;;41.80;;
68987;SDS011;56038;46.080;11.116;2023-02-18T14:12:59;69.80;;;40.63;;
68987;SDS011;56038;46.080;11.116;2023-02-18T14:18:08;79.22;;;42.40;;
68987;SDS011;56038;46.080;11.116;2023-02-18T14:23:41;77.78;;;44.33;;
68987;SDS011;56038;46.080;11.116;2023-02-18T14:29:07;83.28;;;47.33;;
68987;SDS011;56038;46.080;11.116;2023-02-18T14:34:27;81.88;;;45.72;;
68987;SDS011;56038;46.080;11.116;2023-02-18T14:39:50;83.95;;;46.20;;
68987;SDS011;56038;46.080;11.116;2023-02-18T14:45:03;81.95;;;46.28;;
68987;SDS011;56038;46.080;11.116;2023-02-18T14:50:16;91.75;;;49.40;;
68987;SDS011;56038;46.080;11.116;2023-02-18T14:55:33;92.45;;;50.70;;
68987;SDS011;56038;46.080;11.116;2023-02-18T15:00:51;93.45;;;52.78;;
68987;SDS011;56038;46.080;11.116;2023-02-18T15:06:20;86.88;;;48.58;;
68987;SDS011;56038;46.080;11.116;2023-02-18T15:11:41;86.90;;;45.65;;
68987;SDS011;56038;46.080;11.116;2023-02-18T15:16:45;98.35;;;53.53;;
68987;SDS011;56038;46.080;11.116;2023-02-18T15:21:49;83.80;;;44.88;;
68987;SDS011;56038;46.080;11.116;2023-02-18T15:26:55;104.68;;;52.42;;
68987;SDS011;56038;46.080;11.116;2023-02-18T15:32:15;95.70;;;49.92;;
68987;SDS011;56038;46.080;11.116;2023-02-18T15:37:26;96.63;;;51.63;;
68987;SDS011;56038;46.080;11.116;2023-02-18T15:42:31;104.97;;;54.60;;
68987;SDS011;56038;46.080;11.116;2023-02-18T15:47:34;108.13;;;56.17;;
68987;SDS011;56038;46.080;11.116;2023-02-18T15:52:42;107.32;;;55.53;;
68987;SDS011;56038;46.080;11.116;2023-02-18T15:57:45;96.75;;;50.03;;
68987;SDS011;56038;46.080;11.116;2023-02-18T16:02:51;99.90;;;52.70;;
68987;SDS011;56038;46.080;11.116;2023-02-18T16:13:02;97.72;;;50.15;;
68987;SDS011;56038;46.080;11.116;2023-02-18T16:18:05;94.80;;;48.67;;
68987;SDS011;56038;46.080;11.116;2023-02-18T16:23:24;107.45;;;53.00;;
68987;SDS011;56038;46.080;11.116;2023-02-18T16:28:31;90.30;;;47.47;;
68987;SDS011;56038;46.080;11.116;2023-02-18T16:33:34;93.75;;;49.95;;
68987;SDS011;56038;46.080;11.116;2023-02-18T16:38:36;95.68;;;48.88;;
68987;SDS011;56038;46.080;11.116;2023-02-18T16:43:39;91.85;;;48.03;;
68987;SDS011;56038;46.080;11.116;2023-02-18T16:48:42;91.75;;;45.42;;
68987;SDS011;56038;46.080;11.116;2023-02-18T16:53:46;96.43;;;49.92;;
68987;SDS011;56038;46.080;11.116;2023-02-18T16:58:49;99.90;;;49.88;;
68987;SDS011;56038;46.080;11.116;2023-02-18T17:03:51;83.75;;;43.80;;
68987;SDS011;56038;46.080;11.116;2023-02-18T17:08:53;80.03;;;42.63;;
68987;SDS011;56038;46.080;11.116;2023-02-18T17:14:00;89.97;;;45.60;;
68987;SDS011;56038;46.080;11.116;2023-02-18T17:19:04;101.55;;;50.58;;
68987;SDS011;56038;46.080;11.116;2023-02-18T17:24:06;84.50;;;41.92;;
68987;SDS011;56038;46.080;11.116;2023-02-18T17:29:13;84.90;;;41.65;;
68987;SDS011;56038;46.080;11.116;2023-02-18T17:34:17;99.68;;;51.78;;
68987;SDS011;56038;46.080;11.116;2023-02-18T17:39:24;91.03;;;46.05;;
68987;SDS011;56038;46.080;11.116;2023-02-18T17:44:28;67.28;;;37.40;;
68987;SDS011;56038;46.080;11.116;2023-02-18T17:49:30;99.75;;;50.30;;
68987;SDS011;56038;46.080;11.116;2023-02-18T17:54:33;76.68;;;41.28;;
68987;SDS011;56038;46.080;11.116;2023-02-18T17:59:36;67.35;;;36.42;;
68987;SDS011;56038;46.080;11.116;2023-02-18T18:04:38;87.35;;;45.72;;
68987;SDS011;56038;46.080;11.116;2023-02-18T18:09:39;72.65;;;39.83;;
68987;SDS011;56038;46.080;11.116;2023-02-18T18:14:43;101.65;;;51.30;;
68987;SDS011;56038;46.080;11.116;2023-02-18T18:19:44;82.65;;;44.05;;
68987;SDS011;56038;46.080;11.116;2023-02-18T18:24:46;82.40;;;43.17;;
68987;SDS011;56038;46.080;11.116;2023-02-18T18:29:50;72.20;;;40.05;;
68987;SDS011;56038;46.080;11.116;2023-02-18T18:34:52;80.25;;;41.22;;
68987;SDS011;56038;46.080;11.116;2023-02-18T18:39:54;61.72;;;32.05;;
68987;SDS011;56038;46.080;11.116;2023-02-18T18:44:57;98.93;;;48.97;;
68987;SDS011;56038;46.080;11.116;2023-02-18T18:49:59;98.88;;;50.65;;
68987;SDS011;56038;46.080;11.116;2023-02-18T18:55:00;103.75;;;50.92;;
68987;SDS011;56038;46.080;11.116;2023-02-18T19:00:04;91.97;;;49.47;;
68987;SDS011;56038;46.080;11.116;2023-02-18T19:05:09;112.10;;;54.17;;
68987;SDS011;56038;46.080;11.116;2023-02-18T19:10:29;107.40;;;51.67;;
68987;SDS011;56038;46.080;11.116;2023-02-18T19:15:34;114.40;;;57.22;;
68987;SDS011;56038;46.080;11.116;2023-02-18T19:20:35;89.00;;;45.75;;
68987;SDS011;56038;46.080;11.116;2023-02-18T19:25:37;99.55;;;50.03;;
68987;SDS011;56038;46.080;11.116;2023-02-18T19:36:04;85.80;;;44.83;;
68987;SDS011;56038;46.080;11.116;2023-02-18T19:46:13;95.30;;;47.95;;
68987;SDS011;56038;46.080;11.116;2023-02-18T19:51:16;101.07;;;50.63;;
68987;SDS011;56038;46.080;11.116;2023-02-18T19:56:18;89.35;;;47.70;;
68987;SDS011;56038;46.080;11.116;2023-02-18T20:01:21;102.70;;;50.42;;
68987;SDS011;56038;46.080;11.116;2023-02-18T20:06:23;99.20;;;48.22;;
68987;SDS011;56038;46.080;11.116;2023-02-18T20:11:25;111.32;;;54.63;;
68987;SDS011;56038;46.080;11.116;2023-02-18T20:16:28;104.00;;;50.70;;
68987;SDS011;56038;46.080;11.116;2023-02-18T20:21:30;96.53;;;48.47;;
68987;SDS011;56038;46.080;11.116;2023-02-18T20:26:32;94.55;;;48.60;;
68987;SDS011;56038;46.080;11.116;2023-02-18T20:31:35;95.03;;;49.30;;
68987;SDS011;56038;46.080;11.116;2023-02-18T20:36:37;88.28;;;44.10;;
68987;SDS011;56038;46.080;11.116;2023-02-18T20:41:39;88.55;;;44.95;;
68987;SDS011;56038;46.080;11.116;2023-02-18T20:46:43;88.03;;;42.63;;
68987;SDS011;56038;46.080;11.116;2023-02-18T20:51:45;108.05;;;50.50;;
68987;SDS011;56038;46.080;11.116;2023-02-18T20:56:47;101.20;;;50.10;;
68987;SDS011;56038;46.080;11.116;2023-02-18T21:01:51;109.05;;;55.08;;
68987;SDS011;56038;46.080;11.116;2023-02-18T21:06:53;104.25;;;52.45;;
68987;SDS011;56038;46.080;11.116;2023-02-18T21:11:55;104.78;;;51.28;;
68987;SDS011;56038;46.080;11.116;2023-02-18T21:16:58;105.35;;;48.80;;
68987;SDS011;56038;46.080;11.116;2023-02-18T21:21:59;92.97;;;45.33;;
68987;SDS011;56038;46.080;11.116;2023-02-18T21:27:01;103.35;;;49.13;;
68987;SDS011;56038;46.080;11.116;2023-02-18T21:32:04;98.72;;;47.92;;
68987;SDS011;56038;46.080;11.116;2023-02-18T21:37:06;102.13;;;50.17;;
68987;SDS011;56038;46.080;11.116;2023-02-18T21:42:08;99.10;;;49.55;;
68987;SDS011;56038;46.080;11.116;2023-02-18T21:47:12;100.40;;;51.10;;
68987;SDS011;56038;46.080;11.116;2023-02-18T21:52:13;75.90;;;40.63;;
68987;SDS011;56038;46.080;11.116;2023-02-18T21:57:16;92.55;;;46.75;;
68987;SDS011;56038;46.080;11.116;2023-02-18T22:02:21;100.38;;;51.05;;
68987;SDS011;56038;46.080;11.116;2023-02-18T22:07:24;100.00;;;49.53;;
68987;SDS011;56038;46.080;11.116;2023-02-18T22:12:26;70.03;;;35.05;;
68987;SDS011;56038;46.080;11.116;2023-02-18T22:17:32;96.90;;;46.50;;
68987;SDS011;56038;46.080;11.116;2023-02-18T22:22:34;97.57;;;48.13;;
68987;SDS011;56038;46.080;11.116;2023-02-18T22:27:35;98.97;;;49.53;;
68987;SDS011;56038;46.080;11.116;2023-02-18T22:32:38;93.20;;;47.30;;
68987;SDS011;56038;46.080;11.116;2023-02-18T22:37:40;91.43;;;44.45;;
68987;SDS011;56038;46.080;11.116;2023-02-18T22:42:44;85.95;;;42.28;;
68987;SDS011;56038;46.080;11.116;2023-02-18T22:47:47;92.47;;;45.75;;
68987;SDS011;56038;46.080;11.116;2023-02-18T22:52:49;86.18;;;42.47;;
68987;SDS011;56038;46.080;11.116;2023-02-18T22:57:51;93.97;;;46.72;;
68987;SDS011;56038;46.080;11.116;2023-02-18T23:02:54;78.53;;;38.58;;
68987;SDS011;56038;46.080;11.116;2023-02-18T23:07:55;91.28;;;45.67;;
68987;SDS011;56038;46.080;11.116;2023-02-18T23:12:57;87.97;;;44.45;;
68987;SDS011;56038;46.080;11.116;2023-02-18T23:18:00;76.60;;;39.38;;
68987;SDS011;56038;46.080;11.116;2023-02-18T23:23:02;75.18;;;38.58;;
68987;SDS011;56038;46.080;11.116;2023-02-18T23:28:04;72.22;;;37.92;;
68987;SDS011;56038;46.080;11.116;2023-02-18T23:33:07;75.03;;;37.55;;
68987;SDS011;56038;46.080;11.116;2023-02-18T23:38:10;79.82;;;39.35;;
68987;SDS011;56038;46.080;11.116;2023-02-18T23:43:11;86.95;;;41.55;;
68987;SDS011;56038;46.080;11.116;2023-02-18T23:48:14;78.53;;;38.92;;
68987;SDS011;56038;46.080;11.116;2023-02-18T23:53:16;79.25;;;38.88;;
68987;SDS011;56038;46.080;11.116;2023-02-18T23:58:18;89.13;;;43.42;;
